Time;durP1;ratioP1;P1;durP2;ratioP2;P2;SDS_P1;SDS_P2;PMS_P1;PMS_P2;Temp;Humidity;BMP_temperature;BMP_pressure;BME280_temperature;BME280_humidity;BME280_pressure;Samples;Min_cycle;Max_cycle;Signal;HPM_P1;HPM_P2
2021/08/28 00:02:19;;;;;;;25.98;7.00;;;;;;;14.26;87.54;101556.13;5037372;28;20045;-74
2021/08/28 00:04:47;;;;;;;18.25;6.68;;;;;;;14.19;88.10;101555.09;5039751;28;20493;-74
2021/08/28 00:07:13;;;;;;;23.05;7.20;;;;;;;14.30;87.64;101556.66;5056691;28;20036;-74
2021/08/28 00:09:40;;;;;;;19.13;6.82;;;;;;;14.40;87.53;101550.19;5074974;28;20041;-74
2021/08/28 00:12:07;;;;;;;28.10;7.55;;;;;;;14.32;87.40;101557.34;5057516;28;20052;-74
2021/08/28 00:14:33;;;;;;;25.75;8.13;;;;;;;14.34;87.93;101555.34;5073867;28;20036;-74
2021/08/28 00:17:01;;;;;;;21.55;7.22;;;;;;;14.36;86.84;101545.34;5075289;28;20041;-74
2021/08/28 00:19:28;;;;;;;27.00;7.13;;;;;;;14.33;87.00;101546.47;5057103;28;20124;-74
2021/08/28 00:21:55;;;;;;;26.70;7.82;;;;;;;14.31;87.49;101537.78;5056757;28;20078;-73
2021/08/28 00:24:21;;;;;;;27.95;8.52;;;;;;;14.38;87.35;101536.16;5057023;28;20040;-74
2021/08/28 00:26:48;;;;;;;23.30;8.45;;;;;;;14.38;87.17;101538.00;5074745;28;20119;-74
2021/08/28 00:29:15;;;;;;;31.88;9.07;;;;;;;14.31;87.26;101537.78;5074498;28;20040;-74
2021/08/28 00:31:43;;;;;;;22.52;9.32;;;;;;;14.41;87.44;101529.69;5074366;28;20504;-74
2021/08/28 00:34:11;;;;;;;24.20;9.15;;;;;;;14.34;87.34;101526.81;5073002;28;20165;-74
2021/08/28 00:36:40;;;;;;;24.50;9.57;;;;;;;14.39;87.50;101523.66;5074208;28;20520;-74
2021/08/28 00:39:06;;;;;;;25.42;9.25;;;;;;;14.38;87.16;101527.31;5056492;28;20047;-74
2021/08/28 00:41:33;;;;;;;25.33;8.98;;;;;;;14.40;86.68;101526.16;5040409;28;20040;-74
2021/08/28 00:44:03;;;;;;;23.83;8.40;;;;;;;14.46;86.72;101519.38;5024125;28;20045;-74
2021/08/28 00:46:29;;;;;;;20.45;7.72;;;;;;;14.43;86.67;101527.69;5074065;28;20041;-74
2021/08/28 00:48:58;;;;;;;25.70;8.55;;;;;;;14.45;87.54;101524.84;5073797;28;20036;-74
2021/08/28 00:51:25;;;;;;;22.98;7.88;;;;;;;14.40;87.45;101528.00;5056691;28;20040;-74
2021/08/28 00:53:52;;;;;;;21.75;7.70;;;;;;;14.39;86.92;101523.66;5039730;28;20041;-73
2021/08/28 00:56:19;;;;;;;22.77;8.05;;;;;;;14.46;87.48;101534.53;5056666;28;20437;-73
2021/08/28 00:58:46;;;;;;;18.08;7.75;;;;;;;14.52;86.93;101529.38;5079530;28;20052;-73
2021/08/28 01:01:17;;;;;;;26.30;8.00;;;;;;;14.41;86.66;101535.03;5080393;28;20094;-73
2021/08/28 01:03:50;;;;;;;22.33;7.47;;;;;;;14.67;86.09;101534.16;5072438;28;20056;-73
2021/08/28 01:06:22;;;;;;;26.80;7.95;;;;;;;14.40;86.95;101536.84;5073887;28;20123;-73
2021/08/28 01:09:16;;;;;;;21.48;8.30;;;;;;;14.59;86.78;101548.31;5058597;28;20045;-73
2021/08/28 01:12:13;;;;;;;34.35;9.45;;;;;;;14.40;86.72;101533.34;5073710;28;20409;-73
2021/08/28 01:14:57;;;;;;;25.88;9.05;;;;;;;14.43;87.68;101542.88;5074148;28;20071;-73
2021/08/28 01:17:27;;;;;;;28.70;9.50;;;;;;;14.52;86.84;101545.41;5073408;28;20489;-73
2021/08/28 01:20:34;;;;;;;32.10;10.52;;;;;;;14.50;87.14;101549.25;5073481;28;20079;-73
2021/08/28 01:23:21;;;;;;;23.65;9.73;;;;;;;14.49;86.87;101558.25;5072476;28;20397;-73
2021/08/28 01:26:14;;;;;;;23.25;9.48;;;;;;;14.54;87.30;101548.75;5073563;28;20128;-73
2021/08/28 01:28:49;;;;;;;27.30;11.07;;;;;;;14.43;86.56;101541.03;5073265;28;20072;-74
2021/08/28 01:31:17;;;;;;;23.90;11.05;;;;;;;14.51;87.48;101542.91;5072083;28;20072;-74
2021/08/28 01:33:48;;;;;;;28.15;10.75;;;;;;;14.49;87.40;101551.06;5073503;28;20050;-74
2021/08/28 01:36:17;;;;;;;24.35;9.85;;;;;;;14.53;86.80;101538.22;5073246;28;20045;-74
2021/08/28 01:38:55;;;;;;;27.67;10.23;;;;;;;14.46;86.94;101542.53;5072885;28;20452;-74
2021/08/28 01:41:26;;;;;;;27.58;10.30;;;;;;;14.56;86.82;101544.09;5071581;28;20413;-74
2021/08/28 01:43:57;;;;;;;26.23;11.77;;;;;;;14.42;87.01;101535.84;5073060;28;20056;-73
2021/08/28 01:46:26;;;;;;;28.00;12.13;;;;;;;14.40;87.55;101541.34;5072890;28;20033;-73
2021/08/28 01:48:54;;;;;;;30.30;13.20;;;;;;;14.46;86.81;101546.06;5073147;28;20078;-73
2021/08/28 01:51:28;;;;;;;29.63;12.68;;;;;;;14.54;86.55;101534.56;5055453;28;20499;-73
2021/08/28 01:53:56;;;;;;;29.27;13.50;;;;;;;14.50;87.01;101544.72;5073298;28;20524;-73
2021/08/28 01:56:24;;;;;;;32.00;12.55;;;;;;;14.49;86.95;101551.06;5073003;28;20047;-73
2021/08/28 01:58:52;;;;;;;25.20;12.30;;;;;;;14.41;87.58;101543.03;5022050;28;20455;-73
2021/08/28 02:01:38;;;;;;;33.53;14.38;;;;;;;14.41;87.58;101537.69;5072466;28;20585;-73
2021/08/28 02:04:05;;;;;;;32.95;14.52;;;;;;;14.31;87.49;101545.78;5072666;28;20047;-73
2021/08/28 02:06:43;;;;;;;36.95;14.73;;;;;;;14.34;87.17;101542.00;5071491;28;20045;-74
2021/08/28 02:09:39;;;;;;;44.13;18.02;;;;;;;14.33;87.25;101533.13;5055033;28;20063;-74
2021/08/28 02:12:16;;;;;;;46.70;19.13;;;;;;;14.46;86.87;101535.38;5071817;28;20040;-74
2021/08/28 02:14:53;;;;;;;35.80;17.80;;;;;;;14.53;86.82;101539.06;5036330;28;20102;-73
2021/08/28 02:17:21;;;;;;;37.35;16.75;;;;;;;14.43;87.16;101537.53;5052605;28;20241;-73
2021/08/28 02:19:48;;;;;;;49.33;17.27;;;;;;;14.44;87.40;101549.88;5051078;28;20485;-74
2021/08/28 02:22:40;;;;;;;40.45;18.05;;;;;;;14.47;87.23;101537.03;5037643;28;20041;-74
2021/08/28 02:25:31;;;;;;;47.55;18.83;;;;;;;14.57;86.92;101544.91;5052632;28;20043;-74
2021/08/28 02:28:04;;;;;;;35.47;17.90;;;;;;;14.48;87.38;101538.72;5052445;28;20041;-73
2021/08/28 02:30:33;;;;;;;44.65;18.83;;;;;;;14.54;87.88;101543.41;5044624;28;20055;-73
2021/08/28 02:33:11;;;;;;;40.28;18.90;;;;;;;14.57;86.53;101544.91;5072090;28;20127;-73
2021/08/28 02:35:47;;;;;;;48.03;21.38;;;;;;;14.65;86.90;101538.81;5072377;28;20044;-73
2021/08/28 02:38:16;;;;;;;55.45;22.13;;;;;;;14.64;87.02;101543.31;5071306;28;20040;-73
2021/08/28 02:40:50;;;;;;;51.60;21.42;;;;;;;14.65;87.61;101536.16;5070848;28;20072;-73
2021/08/28 02:43:18;;;;;;;51.22;22.25;;;;;;;14.59;86.75;101537.63;5054521;28;20052;-74
2021/08/28 02:45:50;;;;;;;50.90;23.80;;;;;;;14.51;87.32;101543.72;5054866;28;20059;-73
2021/08/28 02:48:23;;;;;;;49.92;24.83;;;;;;;14.54;88.00;101543.41;5072238;28;20489;-73
2021/08/28 02:50:52;;;;;;;49.92;24.23;;;;;;;14.51;87.73;101543.72;5072814;28;20048;-74
2021/08/28 02:53:22;;;;;;;52.50;24.75;;;;;;;14.62;87.07;101545.31;5054716;28;20044;-74
2021/08/28 02:55:51;;;;;;;59.58;25.23;;;;;;;14.67;87.13;101547.50;5072439;28;20040;-74
2021/08/28 02:58:21;;;;;;;55.42;23.70;;;;;;;14.69;87.08;101553.50;5072204;28;20064;-73
2021/08/28 03:00:50;;;;;;;52.72;24.27;;;;;;;14.63;87.49;101541.66;5034451;28;20068;-73
2021/08/28 03:03:18;;;;;;;55.97;24.17;;;;;;;14.47;87.39;101541.56;5060284;28;20036;-73
2021/08/28 03:05:48;;;;;;;55.45;24.85;;;;;;;14.42;87.90;101539.34;5072346;28;20461;-74
2021/08/28 03:08:18;;;;;;;56.70;24.55;;;;;;;14.56;87.68;101536.06;5072235;28;20066;-74
2021/08/28 03:10:49;;;;;;;48.72;22.83;;;;;;;14.56;87.59;101541.41;5053935;28;20106;-73
2021/08/28 03:13:18;;;;;;;53.45;24.05;;;;;;;14.57;87.96;101539.56;5053142;28;20044;-73
2021/08/28 03:15:47;;;;;;;63.13;23.40;;;;;;;14.53;87.95;101539.06;5073630;28;20119;-74
2021/08/28 03:18:19;;;;;;;64.97;22.75;;;;;;;14.54;87.41;101534.56;5063829;28;20048;-74
2021/08/28 03:20:50;;;;;;;52.30;22.15;;;;;;;14.53;87.99;101536.38;5071133;28;20063;-74
2021/08/28 03:23:20;;;;;;;51.55;21.98;;;;;;;14.49;88.00;101535.03;5070877;28;20055;-74
2021/08/28 03:25:49;;;;;;;53.73;22.23;;;;;;;14.53;88.42;101536.38;5056049;28;20044;-74
2021/08/28 03:28:17;;;;;;;49.70;21.10;;;;;;;14.54;88.70;101530.06;5075841;28;20294;-74
2021/08/28 03:30:46;;;;;;;54.90;22.05;;;;;;;14.57;88.03;101531.56;5075183;28;20512;-73
2021/08/28 03:33:16;;;;;;;66.45;22.20;;;;;;;14.59;88.01;101524.28;5057817;28;20123;-74
2021/08/28 03:35:50;;;;;;;47.78;20.58;;;;;;;14.63;87.79;101533.63;5074015;28;20106;-73
2021/08/28 03:38:17;;;;;;;51.08;21.73;;;;;;;14.37;88.75;101528.31;5075246;28;20043;-73
2021/08/28 03:40:45;;;;;;;51.42;21.30;;;;;;;14.41;89.18;101527.00;5075457;28;20052;-74
2021/08/28 03:43:12;;;;;;;49.63;20.65;;;;;;;14.37;88.37;101521.16;5057653;28;20101;-74
2021/08/28 03:45:40;;;;;;;52.35;22.02;;;;;;;14.51;88.07;101516.19;5075294;28;20044;-73
2021/08/28 03:48:07;;;;;;;47.38;22.42;;;;;;;14.55;87.88;101515.72;5075149;28;20037;-73
2021/08/28 03:50:35;;;;;;;48.65;21.73;;;;;;;14.50;88.51;101510.03;5075221;28;20052;-74
2021/08/28 03:53:04;;;;;;;52.72;23.40;;;;;;;14.65;87.78;101520.13;5066867;28;20462;-74
2021/08/28 03:55:31;;;;;;;54.25;24.77;;;;;;;14.47;88.08;101518.34;5075507;28;20122;-74
2021/08/28 03:57:58;;;;;;;60.78;25.38;;;;;;;14.53;88.05;101519.53;5057550;28;20505;-74
2021/08/28 04:00:26;;;;;;;58.58;25.35;;;;;;;14.71;87.81;101506.13;5040879;28;20379;-74
2021/08/28 04:03:02;;;;;;;59.13;24.80;;;;;;;14.65;87.86;101507.59;5057470;28;20048;-74
2021/08/28 04:05:30;;;;;;;55.85;24.80;;;;;;;14.71;87.27;101503.44;5041076;28;20396;-74
2021/08/28 04:08:08;;;;;;;52.28;24.73;;;;;;;14.64;87.53;101508.59;5059023;28;20067;-73
2021/08/28 04:10:43;;;;;;;55.92;22.92;;;;;;;14.55;88.08;101509.53;5041469;28;20098;-74
2021/08/28 04:13:13;;;;;;;63.78;23.63;;;;;;;14.48;88.01;101509.34;5057543;28;20049;-74
2021/08/28 04:15:40;;;;;;;57.10;25.17;;;;;;;14.61;88.43;101505.41;5074901;28;20115;-74
2021/08/28 04:18:18;;;;;;;51.40;24.92;;;;;;;14.59;88.57;101509.09;5073318;28;20040;-74
2021/08/28 04:20:50;;;;;;;58.03;24.15;;;;;;;14.52;88.33;101513.38;5074930;28;20040;-74
2021/08/28 04:23:27;;;;;;;53.58;22.92;;;;;;;14.51;88.05;101509.00;5074669;28;20052;-73
2021/08/28 04:26:14;;;;;;;50.30;21.65;;;;;;;14.53;88.33;101512.34;5043016;28;20082;-73
2021/08/28 04:28:42;;;;;;;46.78;21.00;;;;;;;14.50;88.16;101502.03;5074470;28;20072;-73
2021/08/28 04:31:08;;;;;;;47.80;20.75;;;;;;;14.45;88.13;101504.34;5074240;28;20048;-73
2021/08/28 04:33:35;;;;;;;45.55;21.08;;;;;;;14.45;88.37;101506.19;5057215;28;20055;-74
2021/08/28 04:36:03;;;;;;;44.85;19.75;;;;;;;14.55;88.09;101497.03;5055703;28;20048;-74
2021/08/28 04:38:30;;;;;;;47.65;20.30;;;;;;;14.69;87.61;101489.44;5074411;28;20036;-74
2021/08/28 04:40:57;;;;;;;39.15;18.85;;;;;;;14.75;87.84;101494.97;5073162;28;20051;-74
2021/08/28 04:43:26;;;;;;;45.58;20.13;;;;;;;14.62;88.45;101496.41;5074449;28;20131;-74
2021/08/28 04:46:07;;;;;;;38.22;18.48;;;;;;;14.62;87.91;101496.41;5039899;28;20044;-74
2021/08/28 04:48:40;;;;;;;34.33;17.83;;;;;;;14.71;87.75;101493.59;5073761;28;20475;-74
2021/08/28 04:51:23;;;;;;;34.67;18.25;;;;;;;14.50;88.65;101491.34;5074440;28;20405;-74
2021/08/28 04:53:50;;;;;;;33.30;17.10;;;;;;;14.60;88.33;101485.88;5074467;28;20408;-74
2021/08/28 04:56:17;;;;;;;37.33;17.08;;;;;;;14.62;89.01;101488.41;5056479;28;20044;-74
2021/08/28 04:58:44;;;;;;;34.25;16.60;;;;;;;14.60;89.00;101485.88;5073927;28;20098;-74
2021/08/28 05:01:31;;;;;;;32.80;17.60;;;;;;;14.80;88.85;101478.44;5073654;28;20040;-74
2021/08/28 05:04:18;;;;;;;29.65;17.02;;;;;;;14.77;88.47;101476.94;5074189;28;20040;-73
2021/08/28 05:06:46;;;;;;;31.33;16.27;;;;;;;14.73;88.76;101477.41;5072664;28;20056;-74
2021/08/28 05:09:18;;;;;;;34.83;16.85;;;;;;;14.68;89.40;101477.91;5073667;28;20501;-74
2021/08/28 05:11:47;;;;;;;31.95;16.25;;;;;;;14.64;89.36;101484.56;5072270;28;20574;-74
2021/08/28 05:14:15;;;;;;;32.67;18.35;;;;;;;14.70;89.26;101475.91;5072566;28;20045;-74
2021/08/28 05:16:44;;;;;;;30.08;16.83;;;;;;;14.68;89.70;101487.75;5073636;28;20052;-74
2021/08/28 05:19:31;;;;;;;31.67;16.50;;;;;;;14.69;88.88;101482.25;5073548;28;20040;-74
2021/08/28 05:22:00;;;;;;;28.25;16.70;;;;;;;14.70;88.83;101480.44;5073234;28;20554;-74
2021/08/28 05:24:42;;;;;;;30.73;16.23;;;;;;;14.70;89.53;101483.94;5072439;28;20055;-74
2021/08/28 05:27:10;;;;;;;30.58;16.75;;;;;;;14.80;89.45;101477.59;5073679;28;20048;-73
2021/08/28 05:29:36;;;;;;;29.08;16.58;;;;;;;14.77;89.32;101473.41;5073194;28;20045;-73
2021/08/28 05:32:04;;;;;;;29.75;15.80;;;;;;;14.66;89.53;101477.25;5073288;28;20097;-73
2021/08/28 05:34:32;;;;;;;29.20;15.10;;;;;;;14.64;90.00;101478.38;5059122;28;20505;-74
2021/08/28 05:37:18;;;;;;;26.05;13.60;;;;;;;14.66;89.83;101479.06;5075520;28;20524;-74
2021/08/28 05:40:07;;;;;;;17.08;10.55;;;;;;;14.60;89.41;101488.56;5055242;28;20045;-74
2021/08/28 05:42:35;;;;;;;18.00;10.93;;;;;;;14.69;88.91;101486.75;5054837;28;20090;-73
2021/08/28 05:45:03;;;;;;;20.65;13.30;;;;;;;14.63;89.30;101487.41;5073464;28;20063;-74
2021/08/28 05:47:30;;;;;;;22.10;13.13;;;;;;;14.61;89.33;101494.72;5054402;28;20497;-74
2021/08/28 05:49:57;;;;;;;29.23;16.58;;;;;;;14.59;89.47;101490.41;5072957;28;20049;-74
2021/08/28 05:52:24;;;;;;;32.47;17.23;;;;;;;14.51;89.46;101498.34;5055526;28;20044;-74
2021/08/28 05:54:51;;;;;;;29.45;19.08;;;;;;;14.46;89.66;101486.47;5060349;28;20044;-74
2021/08/28 05:57:18;;;;;;;28.33;19.48;;;;;;;14.45;90.14;101498.16;5055009;28;20124;-74
2021/08/28 05:59:45;;;;;;;31.02;19.85;;;;;;;14.48;90.08;101498.69;5072730;28;20047;-74
2021/08/28 06:02:13;;;;;;;36.83;21.25;;;;;;;14.53;90.09;101508.84;5055652;28;20386;-73
2021/08/28 06:04:41;;;;;;;38.45;22.08;;;;;;;14.57;90.00;101503.09;5055240;28;20049;-74
2021/08/28 06:07:18;;;;;;;34.55;21.70;;;;;;;14.63;89.80;101506.09;5130911;27;20165;-73
2021/08/28 06:10:06;;;;;;;39.70;23.08;;;;;;;14.62;89.94;101504.41;5129512;28;20078;-73
2021/08/28 06:12:45;;;;;;;43.03;24.83;;;;;;;14.69;90.30;101508.94;5130708;28;20075;-73
2021/08/28 06:15:33;;;;;;;40.47;23.25;;;;;;;14.73;90.05;101506.78;5128807;28;20035;-73
2021/08/28 06:18:07;;;;;;;43.08;23.73;;;;;;;14.76;89.87;101504.63;5128094;28;20043;-73
2021/08/28 06:20:34;;;;;;;39.05;22.85;;;;;;;14.81;89.02;101501.47;5110242;28;20051;-74
2021/08/28 06:23:03;;;;;;;44.60;23.88;;;;;;;14.92;89.47;101511.84;5110180;28;20071;-73
2021/08/28 06:25:49;;;;;;;43.95;24.10;;;;;;;14.86;89.75;101504.50;5095168;28;20123;-73
2021/08/28 06:28:16;;;;;;;44.60;23.95;;;;;;;14.87;89.52;101514.16;5108923;28;20036;-74
2021/08/28 06:30:43;;;;;;;40.53;23.27;;;;;;;14.82;88.95;101513.00;5109212;28;20044;-74
2021/08/28 06:33:10;;;;;;;42.55;22.00;;;;;;;14.91;89.36;101512.00;5092072;28;20058;-73
2021/08/28 06:35:37;;;;;;;38.72;22.35;;;;;;;14.90;89.58;101510.34;5121224;28;20043;-73
2021/08/28 06:38:20;;;;;;;45.97;23.52;;;;;;;14.83;89.38;101512.00;5129504;28;20488;-73
2021/08/28 06:41:06;;;;;;;42.20;23.35;;;;;;;14.93;89.12;101510.84;5126975;28;20043;-73
2021/08/28 06:43:53;;;;;;;42.20;22.33;;;;;;;14.90;88.59;101515.69;5130111;28;20039;-74
2021/08/28 06:46:39;;;;;;;54.78;24.88;;;;;;;14.85;88.89;101510.00;5128785;28;20518;-74
2021/08/28 06:49:26;;;;;;;47.60;23.15;;;;;;;14.97;88.85;101506.84;5128179;28;20055;-74
2021/08/28 06:52:13;;;;;;;46.15;22.42;;;;;;;14.90;88.74;101505.00;5114986;28;20081;-74
2021/08/28 06:54:59;;;;;;;40.00;20.65;;;;;;;14.91;88.61;101506.66;5128699;28;20073;-74
2021/08/28 06:57:46;;;;;;;40.05;21.08;;;;;;;14.89;88.89;101503.31;5129378;28;20054;-74
2021/08/28 07:00:22;;;;;;;41.75;20.30;;;;;;;14.93;89.28;101512.69;5128840;28;20055;-74
2021/08/28 07:03:08;;;;;;;35.70;20.75;;;;;;;14.99;88.65;101506.69;5129672;28;20097;-74
2021/08/28 07:05:37;;;;;;;46.78;21.35;;;;;;;14.90;88.96;101507.69;5127696;27;20080;-74
2021/08/28 07:08:19;;;;;;;54.42;25.58;;;;;;;14.93;88.84;101507.34;5128694;28;20047;-74
2021/08/28 07:10:46;;;;;;;42.80;22.35;;;;;;;14.94;88.31;101509.84;5129616;27;20071;-74
2021/08/28 07:13:13;;;;;;;45.60;24.45;;;;;;;15.01;88.50;101510.03;5129686;28;20054;-74
2021/08/28 07:15:40;;;;;;;41.42;21.63;;;;;;;15.11;88.04;101513.38;5129579;27;20074;-74
2021/08/28 07:18:12;;;;;;;;;;;;;;;15.06;87.43;101512.19;5118674;27;20039;-74
2021/08/28 07:20:42;;;;;;;43.00;20.65;;;;;;;15.06;88.57;101517.53;5113651;28;20295;-74
2021/08/28 07:23:10;;;;;;;36.88;19.23;;;;;;;15.08;88.39;101508.38;5114738;28;20053;-74
2021/08/28 07:25:51;;;;;;;40.42;19.88;;;;;;;15.13;88.24;101511.41;5115470;28;20267;-74
2021/08/28 07:28:22;;;;;;;36.78;21.13;;;;;;;15.09;87.65;101507.34;5115842;28;20040;-74
2021/08/28 07:31:09;;;;;;;39.65;20.95;;;;;;;15.05;87.62;101502.53;5098404;28;20044;-74
2021/08/28 07:33:42;;;;;;;41.95;20.38;;;;;;;15.11;87.85;101513.38;5076700;28;20059;-73
2021/08/28 07:36:09;;;;;;;43.10;22.10;;;;;;;15.16;88.50;101511.03;5093822;28;20496;-74
2021/08/28 07:38:40;;;;;;;42.45;21.17;;;;;;;15.19;88.46;101511.72;5094628;28;20048;-74
2021/08/28 07:41:07;;;;;;;36.85;21.83;;;;;;;15.18;88.13;101507.38;5095016;28;20105;-74
2021/08/28 07:43:35;;;;;;;36.22;20.02;;;;;;;15.24;88.23;101509.38;5093682;28;20123;-74
2021/08/28 07:46:04;;;;;;;46.97;21.63;;;;;;;15.31;87.85;101513.88;5094935;28;20443;-74
2021/08/28 07:48:33;;;;;;;49.90;22.02;;;;;;;15.29;87.92;101512.41;5093183;28;20055;-74
2021/08/28 07:51:02;;;;;;;43.85;21.95;;;;;;;15.28;87.49;101514.25;5096272;28;20496;-74
2021/08/28 07:53:29;;;;;;;41.65;22.80;;;;;;;15.36;87.17;101518.75;5101283;28;20127;-74
2021/08/28 07:56:00;;;;;;;37.50;19.88;;;;;;;15.46;86.96;101514.09;5101285;28;20119;-74
2021/08/28 07:58:26;;;;;;;39.45;19.90;;;;;;;15.46;87.71;101511.41;5113663;28;20035;-74
2021/08/28 08:00:53;;;;;;;45.03;18.02;;;;;;;15.46;86.72;101510.56;5113700;28;20040;-74
2021/08/28 08:03:20;;;;;;;33.08;18.08;;;;;;;15.46;86.46;101516.75;5113939;28;20044;-73
2021/08/28 08:06:07;;;;;;;35.97;16.88;;;;;;;15.49;85.78;101515.56;5085093;28;20408;-73
2021/08/28 08:08:55;;;;;;;34.65;16.35;;;;;;;15.65;86.60;101510.22;5113550;28;20114;-74
2021/08/28 08:11:42;;;;;;;36.05;15.90;;;;;;;15.76;86.02;101509.06;5113696;28;20118;-74
2021/08/28 08:14:29;;;;;;;25.80;14.75;;;;;;;15.83;85.78;101509.22;5085939;28;20122;-74
2021/08/28 08:16:59;;;;;;;30.75;14.73;;;;;;;15.74;84.70;101516.44;5113975;28;20040;-74
2021/08/28 08:19:46;;;;;;;35.55;16.35;;;;;;;15.74;85.79;101516.44;5114543;28;20152;-74
2021/08/28 08:22:33;;;;;;;33.03;16.75;;;;;;;15.80;85.95;101521.09;5114175;28;20132;-74
2021/08/28 08:25:18;;;;;;;41.38;19.42;;;;;;;15.87;86.04;101524.75;5114395;28;20499;-73
2021/08/28 08:28:04;;;;;;;37.47;22.20;;;;;;;15.88;85.45;101528.25;5114286;28;20063;-73
2021/08/28 08:30:51;;;;;;;35.08;19.85;;;;;;;15.90;85.52;101536.97;5100890;28;20044;-74
2021/08/28 08:33:21;;;;;;;42.17;19.27;;;;;;;15.85;84.23;101531.31;5074324;28;20109;-73
2021/08/28 08:35:52;;;;;;;30.05;17.67;;;;;;;15.98;83.85;101536.94;5076321;28;20093;-73
2021/08/28 08:38:19;;;;;;;35.58;18.38;;;;;;;16.01;83.80;101536.63;5075933;28;20044;-73
2021/08/28 08:40:48;;;;;;;29.70;16.27;;;;;;;16.08;83.28;101548.31;5092479;28;20051;-73
2021/08/28 08:43:16;;;;;;;28.77;14.35;;;;;;;16.08;83.78;101544.78;5092606;28;20055;-73
2021/08/28 08:45:45;;;;;;;26.83;13.05;;;;;;;16.04;83.58;101541.59;5093540;28;20074;-73
2021/08/28 08:48:14;;;;;;;22.17;11.85;;;;;;;15.97;82.58;101540.66;5092952;28;20098;-73
2021/08/28 08:50:42;;;;;;;23.13;11.10;;;;;;;15.94;82.35;101530.28;5100080;28;20043;-70
2021/08/28 08:53:12;;;;;;;21.70;11.43;;;;;;;16.07;82.23;101535.94;5110896;27;20133;-70
2021/08/28 08:55:42;;;;;;;22.88;10.60;;;;;;;16.03;82.21;101542.63;5107265;28;20046;-70
2021/08/28 08:58:14;;;;;;;22.08;12.00;;;;;;;16.08;82.47;101539.44;5111295;27;20039;-70
2021/08/28 09:00:43;;;;;;;24.58;13.27;;;;;;;16.22;83.33;101545.94;5114559;27;20511;-70
2021/08/28 09:03:36;;;;;;;28.20;12.52;;;;;;;16.37;80.61;101538.88;5105520;27;20382;-70
2021/08/28 09:06:07;;;;;;;21.20;10.95;;;;;;;16.61;79.96;101539.78;5071504;28;20048;-69
2021/08/28 09:08:38;;;;;;;23.60;9.47;;;;;;;16.84;79.60;101535.31;5086370;28;20640;-69
2021/08/28 09:11:26;;;;;;;22.05;9.57;;;;;;;16.87;79.46;101536.81;5088261;28;20044;-69
2021/08/28 09:14:15;;;;;;;17.73;9.82;;;;;;;16.97;78.25;101533.91;5089514;28;20055;-69
2021/08/28 09:16:42;;;;;;;18.17;8.15;;;;;;;17.20;78.00;101540.13;5092249;28;20404;-68
2021/08/28 09:19:09;;;;;;;23.10;8.70;;;;;;;17.36;78.22;101535.66;5089243;28;20212;-68
2021/08/28 09:21:36;;;;;;;17.17;9.32;;;;;;;17.46;78.78;101537.09;5085608;28;20045;-68
2021/08/28 09:24:06;;;;;;;21.83;8.43;;;;;;;17.60;76.30;101538.13;5085098;28;20489;-68
2021/08/28 09:26:38;;;;;;;15.60;7.97;;;;;;;17.59;74.30;101535.63;5074247;28;20106;-68
2021/08/28 09:29:07;;;;;;;18.80;9.05;;;;;;;17.46;74.88;101536.22;5087557;28;20131;-68
2021/08/28 09:34:26;;;;;;;17.90;8.93;;;;;;;17.13;76.13;101536.47;5070819;28;20744;-67
2021/08/28 09:37:04;;;;;;;21.05;9.02;;;;;;;17.05;76.78;101540.06;5049042;28;20041;-68
2021/08/28 09:39:49;;;;;;;20.05;8.45;;;;;;;17.10;76.23;101536.84;5052699;28;20044;-67
2021/08/28 09:42:19;;;;;;;18.17;9.95;;;;;;;17.07;76.37;101545.25;5065434;28;20037;-70
2021/08/28 09:44:47;;;;;;;21.48;8.15;;;;;;;16.96;75.95;101543.81;5055637;28;20051;-71
2021/08/28 09:47:18;;;;;;;19.33;9.18;;;;;;;16.86;77.39;101552.06;5056376;28;20051;-71
2021/08/28 09:49:48;;;;;;;18.25;8.75;;;;;;;16.79;79.73;101547.53;5064645;28;20056;-72
2021/08/28 09:52:17;;;;;;;14.43;8.68;;;;;;;16.70;80.01;101547.59;5038986;28;20525;-73
2021/08/28 09:54:44;;;;;;;19.42;9.18;;;;;;;16.57;80.18;101560.72;5062855;28;20446;-72
2021/08/28 09:57:11;;;;;;;16.88;9.38;;;;;;;16.31;80.80;101560.97;5043867;28;20040;-73
2021/08/28 09:59:39;;;;;;;25.27;10.10;;;;;;;16.28;82.88;101550.59;5034393;28;20112;-71
2021/08/28 10:02:08;;;;;;;21.75;9.77;;;;;;;16.21;84.65;101563.84;5050230;28;20116;-74
2021/08/28 10:04:53;;;;;;;18.65;9.52;;;;;;;15.98;85.80;101561.03;5047962;28;20477;-75
2021/08/28 10:07:24;;;;;;;13.27;6.63;;;;;;;15.61;86.95;101577.56;5042647;28;20048;-75
2021/08/28 10:09:55;;;;;;;12.73;6.37;;;;;;;15.52;87.31;101576.75;5048613;28;20045;-74
2021/08/28 10:12:23;;;;;;;13.07;6.60;;;;;;;15.37;88.37;101573.88;5067574;28;20072;-75
2021/08/28 10:14:52;;;;;;;17.67;7.53;;;;;;;15.58;89.16;101576.06;5052734;28;20498;-75
2021/08/28 10:17:19;;;;;;;17.92;7.57;;;;;;;15.52;88.84;101574.06;5036669;28;20095;-75
2021/08/28 10:19:49;;;;;;;13.85;6.93;;;;;;;15.45;88.19;101568.53;5054941;28;20041;-74
2021/08/28 10:22:22;;;;;;;17.90;8.38;;;;;;;15.33;88.48;101577.88;5050496;28;20052;-74
2021/08/28 10:24:54;;;;;;;20.30;8.52;;;;;;;15.27;89.80;101559.84;5067910;28;20040;-75
2021/08/28 10:27:23;;;;;;;12.85;7.60;;;;;;;15.39;89.52;101577.25;5043932;28;20538;-75
2021/08/28 10:29:50;;;;;;;12.45;6.95;;;;;;;15.51;89.08;101575.06;5046845;28;20379;-75
2021/08/28 10:32:17;;;;;;;12.80;7.00;;;;;;;15.51;89.64;101569.72;5060512;28;20052;-75
2021/08/28 10:34:44;;;;;;;14.85;7.00;;;;;;;15.55;89.08;101582.59;5043670;28;20044;-75
2021/08/28 10:37:11;;;;;;;14.25;6.45;;;;;;;15.62;88.63;101577.41;5063097;28;20045;-75
2021/08/28 10:39:39;;;;;;;13.45;7.15;;;;;;;15.64;89.20;101583.41;5045037;28;20042;-75
2021/08/28 10:42:09;;;;;;;12.50;6.70;;;;;;;15.63;89.23;101581.75;5047114;28;20045;-75
2021/08/28 10:44:37;;;;;;;14.98;7.00;;;;;;;15.66;89.06;101581.44;5051168;28;20048;-69
2021/08/28 10:47:15;;;;;;;13.40;6.20;;;;;;;15.76;88.85;101578.63;5032104;28;20045;-69
2021/08/28 10:49:45;;;;;;;12.00;5.90;;;;;;;15.76;89.11;101586.63;5030690;28;20045;-69
2021/08/28 10:52:22;;;;;;;9.88;4.97;;;;;;;15.70;88.71;101576.59;5030469;28;20064;-69
2021/08/28 10:54:54;;;;;;;11.18;5.18;;;;;;;15.79;89.33;101572.09;5033445;28;20045;-69
2021/08/28 10:57:25;;;;;;;9.93;4.68;;;;;;;15.94;88.65;101581.13;5019332;28;20051;-69
2021/08/28 11:00:15;;;;;;;10.27;5.40;;;;;;;16.15;89.73;101575.22;5036409;28;20050;-69
2021/08/28 11:02:59;;;;;;;10.68;5.00;;;;;;;16.25;89.19;101575.88;5009573;28;20069;-70
2021/08/28 11:05:28;;;;;;;14.82;5.82;;;;;;;16.38;88.18;101572.66;5020818;28;20510;-70
2021/08/28 11:07:57;;;;;;;11.38;5.80;;;;;;;16.38;87.50;101569.97;5030470;28;20038;-70
2021/08/28 11:10:27;;;;;;;37.90;16.58;;;;;;;16.79;87.42;101566.28;5038227;28;20034;-70
2021/08/28 11:15:38;;;;;;;17.73;7.88;;;;;;;17.20;85.84;101574.16;5119863;27;20378;-68
2021/08/28 11:18:42;;;;;;;18.98;9.00;;;;;;;17.19;85.55;101567.09;5116824;28;20447;-69
2021/08/28 11:21:10;;;;;;;15.63;8.95;;;;;;;17.20;84.60;101568.78;5080486;28;20059;-68
2021/08/28 11:23:39;;;;;;;13.80;8.70;;;;;;;17.30;85.30;101576.59;5106176;28;20036;-70
2021/08/28 11:26:06;;;;;;;17.85;8.90;;;;;;;17.39;85.49;101573.69;5105515;28;20137;-69
2021/08/28 11:28:39;;;;;;;15.95;9.82;;;;;;;17.56;84.96;101577.06;5073662;28;20035;-68
2021/08/28 11:31:06;;;;;;;15.55;9.50;;;;;;;17.57;82.16;101576.06;5086964;28;20044;-70
2021/08/28 11:33:35;;;;;;;17.90;11.05;;;;;;;17.59;84.62;101574.03;5104574;28;20044;-70
2021/08/28 11:36:05;;;;;;;16.25;11.43;;;;;;;17.56;84.42;101563.66;5107007;28;20063;-70
2021/08/28 11:38:45;;;;;;;19.92;12.32;;;;;;;17.50;84.18;101572.44;5067541;28;20477;-68
2021/08/28 11:41:13;;;;;;;24.08;12.57;;;;;;;17.40;83.51;101569.97;5087417;28;20031;-69
2021/08/28 11:43:42;;;;;;;17.15;12.18;;;;;;;17.33;82.55;101578.91;5106282;28;20492;-70